sensor_id;sensor_type;location;lat;lon;timestamp;temperature;humidity
63219;DHT22;49320;52.512;13.448;2023-02-15T00:00:05;8.40;68.90
63219;DHT22;49320;52.512;13.448;2023-02-15T00:02:37;8.40;68.90
63219;DHT22;49320;52.512;13.448;2023-02-15T00:05:04;8.40;69.80
63219;DHT22;49320;52.512;13.448;2023-02-15T00:07:31;8.20;69.10
63219;DHT22;49320;52.512;13.448;2023-02-15T00:12:25;8.10;68.60
63219;DHT22;49320;52.512;13.448;2023-02-15T00:14:51;8.10;69.40
63219;DHT22;49320;52.512;13.448;2023-02-15T00:17:18;8.10;69.50
63219;DHT22;49320;52.512;13.448;2023-02-15T00:19:45;8.00;69.60
63219;DHT22;49320;52.512;13.448;2023-02-15T00:24:40;7.90;69.20
63219;DHT22;49320;52.512;13.448;2023-02-15T00:27:06;7.80;70.00
63219;DHT22;49320;52.512;13.448;2023-02-15T00:34:29;7.70;69.60
63219;DHT22;49320;52.512;13.448;2023-02-15T00:36:56;7.60;70.20
63219;DHT22;49320;52.512;13.448;2023-02-15T00:39:23;7.60;70.50
63219;DHT22;49320;52.512;13.448;2023-02-15T00:41:50;7.60;70.70
63219;DHT22;49320;52.512;13.448;2023-02-15T00:44:17;7.50;70.70
63219;DHT22;49320;52.512;13.448;2023-02-15T00:46:44;7.50;70.90
63219;DHT22;49320;52.512;13.448;2023-02-15T00:49:11;7.50;71.10
63219;DHT22;49320;52.512;13.448;2023-02-15T00:51:38;7.50;71.10
63219;DHT22;49320;52.512;13.448;2023-02-15T00:54:06;7.40;71.20
63219;DHT22;49320;52.512;13.448;2023-02-15T00:56:33;7.40;71.20
63219;DHT22;49320;52.512;13.448;2023-02-15T00:58:59;7.30;71.20
63219;DHT22;49320;52.512;13.448;2023-02-15T01:01:27;7.30;71.40
63219;DHT22;49320;52.512;13.448;2023-02-15T01:03:54;7.30;71.50
63219;DHT22;49320;52.512;13.448;2023-02-15T01:06:20;7.20;71.50
63219;DHT22;49320;52.512;13.448;2023-02-15T01:08:48;6.90;71.50
63219;DHT22;49320;52.512;13.448;2023-02-15T01:11:17;7.20;71.80
63219;DHT22;49320;52.512;13.448;2023-02-15T01:13:49;7.10;71.40
63219;DHT22;49320;52.512;13.448;2023-02-15T01:16:17;7.10;72.40
63219;DHT22;49320;52.512;13.448;2023-02-15T01:18:44;7.10;71.70
63219;DHT22;49320;52.512;13.448;2023-02-15T01:21:17;7.10;71.90
63219;DHT22;49320;52.512;13.448;2023-02-15T01:23:45;7.10;72.30
63219;DHT22;49320;52.512;13.448;2023-02-15T01:26:12;7.00;72.00
63219;DHT22;49320;52.512;13.448;2023-02-15T01:28:40;6.90;73.80
63219;DHT22;49320;52.512;13.448;2023-02-15T01:31:14;7.00;72.20
63219;DHT22;49320;52.512;13.448;2023-02-15T01:33:42;7.00;72.50
63219;DHT22;49320;52.512;13.448;2023-02-15T01:36:10;6.90;72.30
63219;DHT22;49320;52.512;13.448;2023-02-15T01:38:37;6.90;72.50
63219;DHT22;49320;52.512;13.448;2023-02-15T01:41:03;6.90;72.50
63219;DHT22;49320;52.512;13.448;2023-02-15T01:43:51;6.90;72.70
63219;DHT22;49320;52.512;13.448;2023-02-15T01:46:33;6.80;72.90
63219;DHT22;49320;52.512;13.448;2023-02-15T01:49:12;6.80;73.10
63219;DHT22;49320;52.512;13.448;2023-02-15T01:51:45;6.80;73.20
63219;DHT22;49320;52.512;13.448;2023-02-15T01:54:33;6.80;73.20
63219;DHT22;49320;52.512;13.448;2023-02-15T01:57:06;6.80;73.30
63219;DHT22;49320;52.512;13.448;2023-02-15T01:59:38;6.80;73.30
63219;DHT22;49320;52.512;13.448;2023-02-15T02:02:09;6.70;73.30
63219;DHT22;49320;52.512;13.448;2023-02-15T02:04:51;6.70;73.40
63219;DHT22;49320;52.512;13.448;2023-02-15T02:07:21;6.70;73.80
63219;DHT22;49320;52.512;13.448;2023-02-15T02:09:50;6.70;73.50
63219;DHT22;49320;52.512;13.448;2023-02-15T02:12:18;6.70;73.50
63219;DHT22;49320;52.512;13.448;2023-02-15T02:14:48;6.70;73.70
63219;DHT22;49320;52.512;13.448;2023-02-15T02:27:14;6.60;73.80
63219;DHT22;49320;52.512;13.448;2023-02-15T02:33:18;6.60;74.20
63219;DHT22;49320;52.512;13.448;2023-02-15T02:36:42;6.60;74.00
63219;DHT22;49320;52.512;13.448;2023-02-15T02:39:29;6.60;74.40
63219;DHT22;49320;52.512;13.448;2023-02-15T02:42:25;6.50;74.10
63219;DHT22;49320;52.512;13.448;2023-02-15T02:45:25;6.50;74.20
63219;DHT22;49320;52.512;13.448;2023-02-15T02:48:14;6.50;74.60
63219;DHT22;49320;52.512;13.448;2023-02-15T02:50:46;6.50;74.40
63219;DHT22;49320;52.512;13.448;2023-02-15T02:53:12;6.50;74.20
63219;DHT22;49320;52.512;13.448;2023-02-15T02:58:23;6.40;74.50
63219;DHT22;49320;52.512;13.448;2023-02-15T03:01:02;6.40;74.50
63219;DHT22;49320;52.512;13.448;2023-02-15T03:03:38;6.40;74.50
63219;DHT22;49320;52.512;13.448;2023-02-15T03:06:16;6.40;74.60
63219;DHT22;49320;52.512;13.448;2023-02-15T03:08:58;6.40;74.60
63219;DHT22;49320;52.512;13.448;2023-02-15T03:11:30;6.40;74.50
63219;DHT22;49320;52.512;13.448;2023-02-15T03:13:57;6.40;74.40
63219;DHT22;49320;52.512;13.448;2023-02-15T03:16:25;6.30;74.50
63219;DHT22;49320;52.512;13.448;2023-02-15T03:19:07;6.30;74.40
63219;DHT22;49320;52.512;13.448;2023-02-15T03:21:48;6.30;75.60
63219;DHT22;49320;52.512;13.448;2023-02-15T03:24:28;6.00;75.80
63219;DHT22;49320;52.512;13.448;2023-02-15T03:27:04;6.20;74.50
63219;DHT22;49320;52.512;13.448;2023-02-15T03:29:37;6.50;75.70
63219;DHT22;49320;52.512;13.448;2023-02-15T03:32:07;5.90;76.10
63219;DHT22;49320;52.512;13.448;2023-02-15T03:34:36;6.10;74.50
63219;DHT22;49320;52.512;13.448;2023-02-15T03:40:00;6.00;74.70
63219;DHT22;49320;52.512;13.448;2023-02-15T03:43:02;6.10;74.70
63219;DHT22;49320;52.512;13.448;2023-02-15T03:45:40;5.90;74.30
63219;DHT22;49320;52.512;13.448;2023-02-15T03:48:35;5.70;73.80
63219;DHT22;49320;52.512;13.448;2023-02-15T03:51:09;5.60;75.90
63219;DHT22;49320;52.512;13.448;2023-02-15T03:54:12;5.70;74.60
63219;DHT22;49320;52.512;13.448;2023-02-15T03:57:04;5.80;74.60
63219;DHT22;49320;52.512;13.448;2023-02-15T03:59:51;8.90;76.40
63219;DHT22;49320;52.512;13.448;2023-02-15T04:05:43;5.60;74.80
63219;DHT22;49320;52.512;13.448;2023-02-15T04:08:12;5.50;74.60
63219;DHT22;49320;52.512;13.448;2023-02-15T04:10:39;5.50;74.60
63219;DHT22;49320;52.512;13.448;2023-02-15T04:13:24;5.50;74.60
63219;DHT22;49320;52.512;13.448;2023-02-15T04:15:57;5.40;74.70
63219;DHT22;49320;52.512;13.448;2023-02-15T04:18:37;5.40;74.70
63219;DHT22;49320;52.512;13.448;2023-02-15T04:21:26;5.40;74.90
63219;DHT22;49320;52.512;13.448;2023-02-15T04:24:13;5.30;74.90
63219;DHT22;49320;52.512;13.448;2023-02-15T04:26:59;5.00;77.50
63219;DHT22;49320;52.512;13.448;2023-02-15T04:29:27;5.20;75.30
63219;DHT22;49320;52.512;13.448;2023-02-15T04:31:56;5.10;77.40
63219;DHT22;49320;52.512;13.448;2023-02-15T04:34:26;5.10;75.10
63219;DHT22;49320;52.512;13.448;2023-02-15T04:36:53;5.10;75.00
63219;DHT22;49320;52.512;13.448;2023-02-15T04:39:19;5.00;74.90
63219;DHT22;49320;52.512;13.448;2023-02-15T04:41:46;5.00;75.00
63219;DHT22;49320;52.512;13.448;2023-02-15T04:44:14;4.80;75.00
63219;DHT22;49320;52.512;13.448;2023-02-15T04:46:41;4.90;75.10
63219;DHT22;49320;52.512;13.448;2023-02-15T04:49:08;4.90;75.30
63219;DHT22;49320;52.512;13.448;2023-02-15T04:51:35;5.00;75.40
63219;DHT22;49320;52.512;13.448;2023-02-15T04:54:03;4.80;75.10
63219;DHT22;49320;52.512;13.448;2023-02-15T04:56:29;4.70;79.30
63219;DHT22;49320;52.512;13.448;2023-02-15T04:58:57;4.70;75.30
63219;DHT22;49320;52.512;13.448;2023-02-15T05:01:24;4.70;79.40
63219;DHT22;49320;52.512;13.448;2023-02-15T05:03:51;4.70;75.30
63219;DHT22;49320;52.512;13.448;2023-02-15T05:06:17;4.70;75.50
63219;DHT22;49320;52.512;13.448;2023-02-15T05:08:44;4.60;78.90
63219;DHT22;49320;52.512;13.448;2023-02-15T05:11:11;4.60;78.20
63219;DHT22;49320;52.512;13.448;2023-02-15T05:13:38;4.60;75.50
63219;DHT22;49320;52.512;13.448;2023-02-15T05:16:05;4.60;75.40
63219;DHT22;49320;52.512;13.448;2023-02-15T05:18:32;4.60;75.60
63219;DHT22;49320;52.512;13.448;2023-02-15T05:20:59;4.60;75.70
63219;DHT22;49320;52.512;13.448;2023-02-15T05:23:25;4.50;76.30
63219;DHT22;49320;52.512;13.448;2023-02-15T05:25:52;4.50;75.80
63219;DHT22;49320;52.512;13.448;2023-02-15T05:28:38;4.50;75.80
63219;DHT22;49320;52.512;13.448;2023-02-15T05:31:13;4.80;79.30
63219;DHT22;49320;52.512;13.448;2023-02-15T05:33:41;4.50;76.50
63219;DHT22;49320;52.512;13.448;2023-02-15T05:36:09;4.40;76.10
63219;DHT22;49320;52.512;13.448;2023-02-15T05:38:37;4.40;80.00
63219;DHT22;49320;52.512;13.448;2023-02-15T05:41:05;4.40;80.10
63219;DHT22;49320;52.512;13.448;2023-02-15T05:43:34;4.50;80.80
63219;DHT22;49320;52.512;13.448;2023-02-15T05:46:02;4.50;76.70
63219;DHT22;49320;52.512;13.448;2023-02-15T05:48:31;4.50;76.60
63219;DHT22;49320;52.512;13.448;2023-02-15T05:51:09;4.50;76.50
63219;DHT22;49320;52.512;13.448;2023-02-15T05:53:42;4.60;76.90
63219;DHT22;49320;52.512;13.448;2023-02-15T05:56:10;4.60;76.80
63219;DHT22;49320;52.512;13.448;2023-02-15T05:58:40;4.60;76.60
63219;DHT22;49320;52.512;13.448;2023-02-15T06:01:12;4.60;76.30
63219;DHT22;49320;52.512;13.448;2023-02-15T06:03:41;4.70;76.60
63219;DHT22;49320;52.512;13.448;2023-02-15T06:06:09;4.70;76.40
63219;DHT22;49320;52.512;13.448;2023-02-15T06:08:37;4.60;80.60
63219;DHT22;49320;52.512;13.448;2023-02-15T06:11:05;4.70;76.40
63219;DHT22;49320;52.512;13.448;2023-02-15T06:13:33;4.70;76.30
63219;DHT22;49320;52.512;13.448;2023-02-15T06:16:04;4.70;76.30
63219;DHT22;49320;52.512;13.448;2023-02-15T06:18:32;4.70;76.30
63219;DHT22;49320;52.512;13.448;2023-02-15T06:20:59;4.60;76.00
63219;DHT22;49320;52.512;13.448;2023-02-15T06:23:26;4.60;75.70
63219;DHT22;49320;52.512;13.448;2023-02-15T06:25:53;4.60;76.60
63219;DHT22;49320;52.512;13.448;2023-02-15T06:28:19;4.60;76.30
63219;DHT22;49320;52.512;13.448;2023-02-15T06:30:46;4.50;76.20
63219;DHT22;49320;52.512;13.448;2023-02-15T06:33:13;4.50;76.30
63219;DHT22;49320;52.512;13.448;2023-02-15T06:35:40;4.50;81.00
63219;DHT22;49320;52.512;13.448;2023-02-15T06:38:06;4.50;76.60
63219;DHT22;49320;52.512;13.448;2023-02-15T06:40:33;4.50;76.60
63219;DHT22;49320;52.512;13.448;2023-02-15T06:43:00;4.60;81.50
63219;DHT22;49320;52.512;13.448;2023-02-15T06:45:27;4.50;76.80
63219;DHT22;49320;52.512;13.448;2023-02-15T06:47:53;4.50;76.40
63219;DHT22;49320;52.512;13.448;2023-02-15T06:50:20;4.50;76.40
63219;DHT22;49320;52.512;13.448;2023-02-15T06:52:47;4.60;81.90
63219;DHT22;49320;52.512;13.448;2023-02-15T06:55:14;4.40;76.80
63219;DHT22;49320;52.512;13.448;2023-02-15T06:57:41;4.50;76.80
63219;DHT22;49320;52.512;13.448;2023-02-15T07:00:08;4.50;77.10
63219;DHT22;49320;52.512;13.448;2023-02-15T07:05:02;4.50;82.30
63219;DHT22;49320;52.512;13.448;2023-02-15T07:07:31;4.60;77.60
63219;DHT22;49320;52.512;13.448;2023-02-15T07:09:58;4.60;77.50
63219;DHT22;49320;52.512;13.448;2023-02-15T07:12:25;4.50;77.10
63219;DHT22;49320;52.512;13.448;2023-02-15T07:15:13;4.60;80.70
63219;DHT22;49320;52.512;13.448;2023-02-15T07:17:43;4.60;77.00
63219;DHT22;49320;52.512;13.448;2023-02-15T07:20:20;6.00;78.80
63219;DHT22;49320;52.512;13.448;2023-02-15T07:25:17;4.80;82.40
63219;DHT22;49320;52.512;13.448;2023-02-15T07:30:14;4.70;80.90
63219;DHT22;49320;52.512;13.448;2023-02-15T07:32:43;4.70;77.40
63219;DHT22;49320;52.512;13.448;2023-02-15T07:35:32;4.80;77.70
63219;DHT22;49320;52.512;13.448;2023-02-15T07:37:59;4.80;77.60
63219;DHT22;49320;52.512;13.448;2023-02-15T07:40:27;4.90;77.60
63219;DHT22;49320;52.512;13.448;2023-02-15T07:42:57;4.80;82.30
63219;DHT22;49320;52.512;13.448;2023-02-15T07:45:25;4.90;78.00
63219;DHT22;49320;52.512;13.448;2023-02-15T07:47:53;4.90;77.70
63219;DHT22;49320;52.512;13.448;2023-02-15T07:50:20;4.80;81.10
63219;DHT22;49320;52.512;13.448;2023-02-15T07:52:46;5.00;77.80
63219;DHT22;49320;52.512;13.448;2023-02-15T07:55:13;5.00;77.70
63219;DHT22;49320;52.512;13.448;2023-02-15T07:57:44;5.00;77.10
63219;DHT22;49320;52.512;13.448;2023-02-15T08:00:13;5.10;77.70
63219;DHT22;49320;52.512;13.448;2023-02-15T08:02:49;5.10;77.60
63219;DHT22;49320;52.512;13.448;2023-02-15T08:05:36;5.50;81.20
63219;DHT22;49320;52.512;13.448;2023-02-15T08:08:03;5.10;77.40
63219;DHT22;49320;52.512;13.448;2023-02-15T08:10:30;5.40;82.40
63219;DHT22;49320;52.512;13.448;2023-02-15T08:13:29;5.20;77.30
63219;DHT22;49320;52.512;13.448;2023-02-15T08:15:56;5.60;81.50
63219;DHT22;49320;52.512;13.448;2023-02-15T08:18:22;5.40;81.30
63219;DHT22;49320;52.512;13.448;2023-02-15T08:20:50;5.30;77.20
63219;DHT22;49320;52.512;13.448;2023-02-15T08:23:16;5.40;77.70
63219;DHT22;49320;52.512;13.448;2023-02-15T08:25:43;5.40;77.70
63219;DHT22;49320;52.512;13.448;2023-02-15T08:28:10;5.70;81.30
63219;DHT22;49320;52.512;13.448;2023-02-15T08:30:37;5.50;77.50
63219;DHT22;49320;52.512;13.448;2023-02-15T08:33:04;5.50;77.20
63219;DHT22;49320;52.512;13.448;2023-02-15T08:35:31;5.60;77.10
63219;DHT22;49320;52.512;13.448;2023-02-15T08:37:57;5.60;77.00
63219;DHT22;49320;52.512;13.448;2023-02-15T08:40:24;5.60;76.90
63219;DHT22;49320;52.512;13.448;2023-02-15T08:42:51;5.60;77.00
63219;DHT22;49320;52.512;13.448;2023-02-15T08:45:18;5.50;81.00
63219;DHT22;49320;52.512;13.448;2023-02-15T08:47:45;5.70;82.80
63219;DHT22;49320;52.512;13.448;2023-02-15T08:50:11;5.50;80.20
63219;DHT22;49320;52.512;13.448;2023-02-15T08:52:38;5.70;76.60
63219;DHT22;49320;52.512;13.448;2023-02-15T08:55:05;5.50;80.00
63219;DHT22;49320;52.512;13.448;2023-02-15T08:57:32;5.80;81.70
63219;DHT22;49320;52.512;13.448;2023-02-15T08:59:59;5.80;77.20
63219;DHT22;49320;52.512;13.448;2023-02-15T09:02:25;5.60;76.50
63219;DHT22;49320;52.512;13.448;2023-02-15T09:04:52;5.90;77.40
63219;DHT22;49320;52.512;13.448;2023-02-15T09:09:46;6.20;81.50
63219;DHT22;49320;52.512;13.448;2023-02-15T09:12:13;6.00;76.40
63219;DHT22;49320;52.512;13.448;2023-02-15T09:14:40;6.10;76.20
63219;DHT22;49320;52.512;13.448;2023-02-15T09:17:07;6.10;76.00
63219;DHT22;49320;52.512;13.448;2023-02-15T09:19:33;6.20;76.50
63219;DHT22;49320;52.512;13.448;2023-02-15T09:22:00;6.30;76.50
63219;DHT22;49320;52.512;13.448;2023-02-15T09:24:27;6.30;76.30
63219;DHT22;49320;52.512;13.448;2023-02-15T09:26:57;6.30;76.00
63219;DHT22;49320;52.512;13.448;2023-02-15T09:29:24;6.20;75.60
63219;DHT22;49320;52.512;13.448;2023-02-15T09:31:51;6.70;78.90
63219;DHT22;49320;52.512;13.448;2023-02-15T09:34:21;6.40;76.30
63219;DHT22;49320;52.512;13.448;2023-02-15T09:36:49;6.40;76.30
63219;DHT22;49320;52.512;13.448;2023-02-15T09:47:49;6.70;79.10
63219;DHT22;49320;52.512;13.448;2023-02-15T09:53:19;6.70;75.90
63219;DHT22;49320;52.512;13.448;2023-02-15T09:56:31;6.80;75.60
63219;DHT22;49320;52.512;13.448;2023-02-15T09:59:13;6.80;75.40
63219;DHT22;49320;52.512;13.448;2023-02-15T10:05:04;7.00;75.70
63219;DHT22;49320;52.512;13.448;2023-02-15T10:08:11;7.00;75.60
63219;DHT22;49320;52.512;13.448;2023-02-15T10:17:17;7.90;75.50
63219;DHT22;49320;52.512;13.448;2023-02-15T10:20:19;7.30;75.10
63219;DHT22;49320;52.512;13.448;2023-02-15T10:23:30;7.40;74.30
63219;DHT22;49320;52.512;13.448;2023-02-15T10:29:38;7.50;74.70
63219;DHT22;49320;52.512;13.448;2023-02-15T10:32:21;7.50;74.50
63219;DHT22;49320;52.512;13.448;2023-02-15T10:35:01;7.50;73.80
63219;DHT22;49320;52.512;13.448;2023-02-15T10:38:01;7.50;74.50
63219;DHT22;49320;52.512;13.448;2023-02-15T10:40:51;7.50;74.30
63219;DHT22;49320;52.512;13.448;2023-02-15T10:43:46;7.60;74.20
63219;DHT22;49320;52.512;13.448;2023-02-15T10:52:33;7.50;73.60
63219;DHT22;49320;52.512;13.448;2023-02-15T10:55:21;7.40;73.50
63219;DHT22;49320;52.512;13.448;2023-02-15T11:03:51;7.40;74.60
63219;DHT22;49320;52.512;13.448;2023-02-15T11:06:37;7.40;74.10
63219;DHT22;49320;52.512;13.448;2023-02-15T11:09:12;7.30;74.80
63219;DHT22;49320;52.512;13.448;2023-02-15T11:11:49;7.40;74.50
63219;DHT22;49320;52.512;13.448;2023-02-15T11:14:35;7.40;75.00
63219;DHT22;49320;52.512;13.448;2023-02-15T11:17:17;7.40;75.20
63219;DHT22;49320;52.512;13.448;2023-02-15T11:22:35;7.40;77.70
63219;DHT22;49320;52.512;13.448;2023-02-15T11:25:16;7.50;75.30
63219;DHT22;49320;52.512;13.448;2023-02-15T11:27:47;7.50;75.30
63219;DHT22;49320;52.512;13.448;2023-02-15T11:30:29;7.50;75.20
63219;DHT22;49320;52.512;13.448;2023-02-15T11:33:16;5.10;73.30
63219;DHT22;49320;52.512;13.448;2023-02-15T11:36:05;7.50;77.70
63219;DHT22;49320;52.512;13.448;2023-02-15T11:38:38;7.60;75.90
63219;DHT22;49320;52.512;13.448;2023-02-15T11:41:12;7.70;75.00
63219;DHT22;49320;52.512;13.448;2023-02-15T11:49:00;7.80;74.60
63219;DHT22;49320;52.512;13.448;2023-02-15T11:51:29;7.90;75.00
63219;DHT22;49320;52.512;13.448;2023-02-15T11:53:56;10.10;76.80
63219;DHT22;49320;52.512;13.448;2023-02-15T11:56:24;8.10;75.10
63219;DHT22;49320;52.512;13.448;2023-02-15T11:58:57;8.20;75.70
63219;DHT22;49320;52.512;13.448;2023-02-15T12:01:40;8.20;75.60
63219;DHT22;49320;52.512;13.448;2023-02-15T12:07:13;8.40;75.30
63219;DHT22;49320;52.512;13.448;2023-02-15T12:09:55;8.50;75.20
63219;DHT22;49320;52.512;13.448;2023-02-15T12:12:32;8.60;75.20
63219;DHT22;49320;52.512;13.448;2023-02-15T12:15:06;8.70;74.50
63219;DHT22;49320;52.512;13.448;2023-02-15T12:17:38;8.90;74.10
63219;DHT22;49320;52.512;13.448;2023-02-15T12:23:02;9.10;73.80
63219;DHT22;49320;52.512;13.448;2023-02-15T12:25:40;9.20;73.60
63219;DHT22;49320;52.512;13.448;2023-02-15T12:28:33;9.30;73.70
63219;DHT22;49320;52.512;13.448;2023-02-15T12:31:23;9.40;73.40
63219;DHT22;49320;52.512;13.448;2023-02-15T12:33:55;9.40;73.20
63219;DHT22;49320;52.512;13.448;2023-02-15T12:36:44;9.30;72.50
63219;DHT22;49320;52.512;13.448;2023-02-15T12:39:35;9.50;72.20
63219;DHT22;49320;52.512;13.448;2023-02-15T12:42:14;9.60;72.80
63219;DHT22;49320;52.512;13.448;2023-02-15T12:45:01;9.70;73.00
63219;DHT22;49320;52.512;13.448;2023-02-15T12:47:46;9.70;72.50
63219;DHT22;49320;52.512;13.448;2023-02-15T12:50:33;9.80;71.70
63219;DHT22;49320;52.512;13.448;2023-02-15T12:55:55;9.90;71.00
63219;DHT22;49320;52.512;13.448;2023-02-15T12:58:29;9.90;71.20
63219;DHT22;49320;52.512;13.448;2023-02-15T13:01:08;10.20;74.10
63219;DHT22;49320;52.512;13.448;2023-02-15T13:04:00;10.00;71.90
63219;DHT22;49320;52.512;13.448;2023-02-15T13:06:34;10.10;71.00
63219;DHT22;49320;52.512;13.448;2023-02-15T13:09:54;10.10;71.80
63219;DHT22;49320;52.512;13.448;2023-02-15T13:12:21;10.20;71.00
63219;DHT22;49320;52.512;13.448;2023-02-15T13:14:54;10.40;71.30
63219;DHT22;49320;52.512;13.448;2023-02-15T13:17:26;10.60;73.90
63219;DHT22;49320;52.512;13.448;2023-02-15T13:22:41;10.60;70.60
63219;DHT22;49320;52.512;13.448;2023-02-15T13:25:25;10.60;71.40
63219;DHT22;49320;52.512;13.448;2023-02-15T13:28:01;10.70;71.20
63219;DHT22;49320;52.512;13.448;2023-02-15T13:30:35;10.80;71.40
63219;DHT22;49320;52.512;13.448;2023-02-15T13:33:10;10.90;71.20
63219;DHT22;49320;52.512;13.448;2023-02-15T13:35:56;11.10;70.10
63219;DHT22;49320;52.512;13.448;2023-02-15T13:38:49;11.10;70.90
63219;DHT22;49320;52.512;13.448;2023-02-15T13:41:56;11.20;70.80
63219;DHT22;49320;52.512;13.448;2023-02-15T13:48:19;11.50;70.30
63219;DHT22;49320;52.512;13.448;2023-02-15T13:51:25;11.60;69.20
63219;DHT22;49320;52.512;13.448;2023-02-15T13:57:32;11.80;68.90
63219;DHT22;49320;52.512;13.448;2023-02-15T14:15:05;12.20;69.00
63219;DHT22;49320;52.512;13.448;2023-02-15T14:17:50;12.30;67.40
63219;DHT22;49320;52.512;13.448;2023-02-15T14:26:24;12.40;68.30
63219;DHT22;49320;52.512;13.448;2023-02-15T14:32:54;12.60;69.30
63219;DHT22;49320;52.512;13.448;2023-02-15T14:35:21;12.50;69.00
63219;DHT22;49320;52.512;13.448;2023-02-15T14:40:58;12.60;67.10
63219;DHT22;49320;52.512;13.448;2023-02-15T14:43:49;12.60;67.70
63219;DHT22;49320;52.512;13.448;2023-02-15T14:46:42;12.70;66.90
63219;DHT22;49320;52.512;13.448;2023-02-15T14:49:27;12.70;67.40
63219;DHT22;49320;52.512;13.448;2023-02-15T14:52:00;12.70;67.40
63219;DHT22;49320;52.512;13.448;2023-02-15T15:02:25;12.90;67.90
63219;DHT22;49320;52.512;13.448;2023-02-15T15:04:57;12.70;67.30
63219;DHT22;49320;52.512;13.448;2023-02-15T15:07:47;12.70;67.20
63219;DHT22;49320;52.512;13.448;2023-02-15T15:12:50;12.70;66.80
63219;DHT22;49320;52.512;13.448;2023-02-15T15:18:08;12.70;66.90
63219;DHT22;49320;52.512;13.448;2023-02-15T15:20:51;12.80;66.10
63219;DHT22;49320;52.512;13.448;2023-02-15T15:25:53;12.60;67.60
63219;DHT22;49320;52.512;13.448;2023-02-15T15:34:32;12.70;65.90
63219;DHT22;49320;52.512;13.448;2023-02-15T15:37:32;12.70;66.80
63219;DHT22;49320;52.512;13.448;2023-02-15T15:40:28;12.70;66.90
63219;DHT22;49320;52.512;13.448;2023-02-15T15:43:46;12.80;67.30
63219;DHT22;49320;52.512;13.448;2023-02-15T15:47:02;12.80;66.80
63219;DHT22;49320;52.512;13.448;2023-02-15T15:49:37;12.70;66.20
63219;DHT22;49320;52.512;13.448;2023-02-15T15:52:17;12.70;66.50
63219;DHT22;49320;52.512;13.448;2023-02-15T15:54:49;12.50;66.10
63219;DHT22;49320;52.512;13.448;2023-02-15T15:57:28;12.70;66.30
63219;DHT22;49320;52.512;13.448;2023-02-15T16:03:01;12.70;66.00
63219;DHT22;49320;52.512;13.448;2023-02-15T16:05:35;12.70;67.20
63219;DHT22;49320;52.512;13.448;2023-02-15T16:08:04;12.60;67.00
63219;DHT22;49320;52.512;13.448;2023-02-15T16:10:32;12.60;67.10
63219;DHT22;49320;52.512;13.448;2023-02-15T16:13:01;12.50;65.90
63219;DHT22;49320;52.512;13.448;2023-02-15T16:15:42;12.50;67.10
63219;DHT22;49320;52.512;13.448;2023-02-15T16:18:16;12.50;66.10
63219;DHT22;49320;52.512;13.448;2023-02-15T16:20:54;12.40;66.10
63219;DHT22;49320;52.512;13.448;2023-02-15T16:29:31;12.30;67.10
63219;DHT22;49320;52.512;13.448;2023-02-15T16:32:26;12.20;67.30
63219;DHT22;49320;52.512;13.448;2023-02-15T16:34:57;12.20;67.10
63219;DHT22;49320;52.512;13.448;2023-02-15T16:37:31;12.10;66.60
63219;DHT22;49320;52.512;13.448;2023-02-15T16:40:00;12.10;67.40
63219;DHT22;49320;52.512;13.448;2023-02-15T16:42:27;12.10;68.10
63219;DHT22;49320;52.512;13.448;2023-02-15T16:45:12;12.00;67.50
63219;DHT22;49320;52.512;13.448;2023-02-15T16:47:46;12.00;67.40
63219;DHT22;49320;52.512;13.448;2023-02-15T16:50:35;12.00;69.30
63219;DHT22;49320;52.512;13.448;2023-02-15T16:53:06;11.90;67.50
63219;DHT22;49320;52.512;13.448;2023-02-15T16:55:41;11.80;66.80
63219;DHT22;49320;52.512;13.448;2023-02-15T16:58:15;11.80;67.00
63219;DHT22;49320;52.512;13.448;2023-02-15T17:00:43;11.40;67.70
63219;DHT22;49320;52.512;13.448;2023-02-15T17:05:46;11.60;67.90
63219;DHT22;49320;52.512;13.448;2023-02-15T17:11:03;11.50;67.30
63219;DHT22;49320;52.512;13.448;2023-02-15T17:13:36;11.50;70.30
63219;DHT22;49320;52.512;13.448;2023-02-15T17:18:32;11.40;68.20
63219;DHT22;49320;52.512;13.448;2023-02-15T17:21:23;11.30;68.30
63219;DHT22;49320;52.512;13.448;2023-02-15T17:23:58;11.30;67.70
63219;DHT22;49320;52.512;13.448;2023-02-15T17:26:30;11.30;68.50
63219;DHT22;49320;52.512;13.448;2023-02-15T17:29:30;11.10;70.60
63219;DHT22;49320;52.512;13.448;2023-02-15T17:32:00;11.20;68.70
63219;DHT22;49320;52.512;13.448;2023-02-15T17:34:43;11.20;69.00
63219;DHT22;49320;52.512;13.448;2023-02-15T17:40:21;11.10;71.00
63219;DHT22;49320;52.512;13.448;2023-02-15T17:45:20;11.20;71.20
63219;DHT22;49320;52.512;13.448;2023-02-15T17:47:48;10.90;69.10
63219;DHT22;49320;52.512;13.448;2023-02-15T17:50:19;10.90;68.70
63219;DHT22;49320;52.512;13.448;2023-02-15T17:52:52;11.40;69.00
63219;DHT22;49320;52.512;13.448;2023-02-15T17:55:22;10.90;71.20
63219;DHT22;49320;52.512;13.448;2023-02-15T17:58:16;10.80;68.90
63219;DHT22;49320;52.512;13.448;2023-02-15T18:00:54;10.60;71.40
63219;DHT22;49320;52.512;13.448;2023-02-15T18:03:46;10.70;69.00
63219;DHT22;49320;52.512;13.448;2023-02-15T18:06:35;10.60;69.70
63219;DHT22;49320;52.512;13.448;2023-02-15T18:09:23;10.60;69.20
63219;DHT22;49320;52.512;13.448;2023-02-15T18:12:23;10.60;69.30
63219;DHT22;49320;52.512;13.448;2023-02-15T18:14:52;10.50;70.00
63219;DHT22;49320;52.512;13.448;2023-02-15T18:17:44;10.40;73.10
63219;DHT22;49320;52.512;13.448;2023-02-15T18:20:21;10.30;72.40
63219;DHT22;49320;52.512;13.448;2023-02-15T18:22:53;10.40;69.60
63219;DHT22;49320;52.512;13.448;2023-02-15T18:25:22;10.30;69.60
63219;DHT22;49320;52.512;13.448;2023-02-15T18:27:51;10.30;69.90
63219;DHT22;49320;52.512;13.448;2023-02-15T18:30:22;10.30;70.40
63219;DHT22;49320;52.512;13.448;2023-02-15T18:32:53;10.20;70.50
63219;DHT22;49320;52.512;13.448;2023-02-15T18:35:25;10.20;70.20
63219;DHT22;49320;52.512;13.448;2023-02-15T18:37:54;10.10;70.70
63219;DHT22;49320;52.512;13.448;2023-02-15T18:40:24;10.10;70.70
63219;DHT22;49320;52.512;13.448;2023-02-15T18:42:53;10.00;70.90
63219;DHT22;49320;52.512;13.448;2023-02-15T18:45:24;10.00;70.70
63219;DHT22;49320;52.512;13.448;2023-02-15T18:47:54;10.00;71.10
63219;DHT22;49320;52.512;13.448;2023-02-15T18:50:23;9.90;70.80
63219;DHT22;49320;52.512;13.448;2023-02-15T18:52:54;9.90;70.70
63219;DHT22;49320;52.512;13.448;2023-02-15T18:55:24;9.90;70.90
63219;DHT22;49320;52.512;13.448;2023-02-15T18:57:55;9.80;71.00
63219;DHT22;49320;52.512;13.448;2023-02-15T19:00:28;9.80;71.50
63219;DHT22;49320;52.512;13.448;2023-02-15T19:03:00;9.80;71.70
63219;DHT22;49320;52.512;13.448;2023-02-15T19:05:29;9.70;71.10
63219;DHT22;49320;52.512;13.448;2023-02-15T19:07:58;9.70;71.30
63219;DHT22;49320;52.512;13.448;2023-02-15T19:10:28;9.70;71.80